sensor_id;sensor_type;location;lat;lon;timestamp;P1;durP1;ratioP1;P2;durP2;ratioP2
71435;SDS011;59251;51.326;12.370;2022-11-12T00:00:32;11.73;;;5.75;;
71435;SDS011;59251;51.326;12.370;2022-11-12T00:02:58;10.70;;;4.53;;
71435;SDS011;59251;51.326;12.370;2022-11-12T00:05:24;10.33;;;4.53;;
71435;SDS011;59251;51.326;12.370;2022-11-12T00:07:50;10.43;;;4.65;;
71435;SDS011;59251;51.326;12.370;2022-11-12T00:10:15;11.87;;;5.10;;
71435;SDS011;59251;51.326;12.370;2022-11-12T00:12:41;12.05;;;4.82;;
71435;SDS011;59251;51.326;12.370;2022-11-12T00:15:07;13.03;;;4.60;;
71435;SDS011;59251;51.326;12.370;2022-11-12T00:17:32;11.45;;;4.80;;
71435;SDS011;59251;51.326;12.370;2022-11-12T00:19:58;9.57;;;4.45;;
71435;SDS011;59251;51.326;12.370;2022-11-12T00:22:24;12.50;;;4.47;;
71435;SDS011;59251;51.326;12.370;2022-11-12T00:24:49;11.50;;;4.57;;
71435;SDS011;59251;51.326;12.370;2022-11-12T00:27:14;11.60;;;4.83;;
71435;SDS011;59251;51.326;12.370;2022-11-12T00:29:40;12.47;;;4.73;;
71435;SDS011;59251;51.326;12.370;2022-11-12T00:32:05;11.40;;;4.97;;
71435;SDS011;59251;51.326;12.370;2022-11-12T00:34:32;12.82;;;5.43;;
71435;SDS011;59251;51.326;12.370;2022-11-12T00:36:57;11.37;;;4.77;;
71435;SDS011;59251;51.326;12.370;2022-11-12T00:39:23;11.38;;;4.72;;
71435;SDS011;59251;51.326;12.370;2022-11-12T00:41:49;11.87;;;4.83;;
71435;SDS011;59251;51.326;12.370;2022-11-12T00:44:14;11.98;;;4.95;;
71435;SDS011;59251;51.326;12.370;2022-11-12T00:46:40;10.10;;;4.80;;
71435;SDS011;59251;51.326;12.370;2022-11-12T00:49:05;12.83;;;4.90;;
71435;SDS011;59251;51.326;12.370;2022-11-12T00:51:30;11.30;;;4.57;;
71435;SDS011;59251;51.326;12.370;2022-11-12T00:53:56;11.55;;;5.40;;
71435;SDS011;59251;51.326;12.370;2022-11-12T00:56:21;11.67;;;4.67;;
71435;SDS011;59251;51.326;12.370;2022-11-12T00:58:47;10.87;;;4.43;;
71435;SDS011;59251;51.326;12.370;2022-11-12T01:01:13;11.43;;;4.67;;
71435;SDS011;59251;51.326;12.370;2022-11-12T01:03:40;13.52;;;5.13;;
71435;SDS011;59251;51.326;12.370;2022-11-12T01:06:07;15.20;;;6.20;;
71435;SDS011;59251;51.326;12.370;2022-11-12T01:08:35;15.35;;;6.40;;
71435;SDS011;59251;51.326;12.370;2022-11-12T01:11:05;13.07;;;6.30;;
71435;SDS011;59251;51.326;12.370;2022-11-12T01:13:31;15.15;;;6.40;;
71435;SDS011;59251;51.326;12.370;2022-11-12T01:15:57;13.83;;;6.30;;
71435;SDS011;59251;51.326;12.370;2022-11-12T01:18:22;11.63;;;5.30;;
71435;SDS011;59251;51.326;12.370;2022-11-12T01:20:47;12.73;;;5.47;;
71435;SDS011;59251;51.326;12.370;2022-11-12T01:23:13;12.63;;;5.00;;
71435;SDS011;59251;51.326;12.370;2022-11-12T01:25:38;14.37;;;5.33;;
71435;SDS011;59251;51.326;12.370;2022-11-12T01:28:04;13.20;;;5.30;;
71435;SDS011;59251;51.326;12.370;2022-11-12T01:30:29;10.23;;;4.55;;
71435;SDS011;59251;51.326;12.370;2022-11-12T01:32:55;12.17;;;5.50;;
71435;SDS011;59251;51.326;12.370;2022-11-12T01:35:20;13.73;;;5.50;;
71435;SDS011;59251;51.326;12.370;2022-11-12T01:37:46;12.13;;;5.60;;
71435;SDS011;59251;51.326;12.370;2022-11-12T01:40:11;11.23;;;4.97;;
71435;SDS011;59251;51.326;12.370;2022-11-12T01:42:37;11.40;;;5.20;;
71435;SDS011;59251;51.326;12.370;2022-11-12T01:45:10;10.95;;;5.00;;
71435;SDS011;59251;51.326;12.370;2022-11-12T01:47:40;11.83;;;5.03;;
71435;SDS011;59251;51.326;12.370;2022-11-12T01:52:55;11.57;;;5.35;;
71435;SDS011;59251;51.326;12.370;2022-11-12T01:55:28;12.30;;;4.57;;
71435;SDS011;59251;51.326;12.370;2022-11-12T01:58:07;11.18;;;4.80;;
71435;SDS011;59251;51.326;12.370;2022-11-12T02:00:38;11.60;;;4.70;;
71435;SDS011;59251;51.326;12.370;2022-11-12T02:03:06;11.02;;;4.85;;
71435;SDS011;59251;51.326;12.370;2022-11-12T02:05:36;10.80;;;4.63;;
71435;SDS011;59251;51.326;12.370;2022-11-12T02:08:03;11.38;;;4.60;;
71435;SDS011;59251;51.326;12.370;2022-11-12T02:10:31;11.10;;;4.90;;
71435;SDS011;59251;51.326;12.370;2022-11-12T02:12:58;11.30;;;5.00;;
71435;SDS011;59251;51.326;12.370;2022-11-12T02:15:42;12.20;;;4.93;;
71435;SDS011;59251;51.326;12.370;2022-11-12T02:18:07;11.90;;;4.82;;
71435;SDS011;59251;51.326;12.370;2022-11-12T02:20:33;12.70;;;5.30;;
71435;SDS011;59251;51.326;12.370;2022-11-12T02:23:00;10.45;;;4.55;;
71435;SDS011;59251;51.326;12.370;2022-11-12T02:25:26;10.73;;;4.80;;
71435;SDS011;59251;51.326;12.370;2022-11-12T02:27:52;10.45;;;5.20;;
71435;SDS011;59251;51.326;12.370;2022-11-12T02:30:42;12.02;;;4.63;;
71435;SDS011;59251;51.326;12.370;2022-11-12T02:33:07;11.95;;;4.63;;
71435;SDS011;59251;51.326;12.370;2022-11-12T02:35:33;11.47;;;5.17;;
71435;SDS011;59251;51.326;12.370;2022-11-12T02:37:58;11.40;;;4.80;;
71435;SDS011;59251;51.326;12.370;2022-11-12T02:40:24;12.13;;;5.40;;
71435;SDS011;59251;51.326;12.370;2022-11-12T02:42:49;11.30;;;5.30;;
71435;SDS011;59251;51.326;12.370;2022-11-12T02:45:15;12.95;;;5.30;;
71435;SDS011;59251;51.326;12.370;2022-11-12T02:47:41;13.20;;;5.40;;
71435;SDS011;59251;51.326;12.370;2022-11-12T02:50:07;12.60;;;5.60;;
71435;SDS011;59251;51.326;12.370;2022-11-12T02:52:32;12.30;;;5.73;;
71435;SDS011;59251;51.326;12.370;2022-11-12T02:54:59;14.85;;;5.97;;
71435;SDS011;59251;51.326;12.370;2022-11-12T02:57:24;12.83;;;5.60;;
71435;SDS011;59251;51.326;12.370;2022-11-12T02:59:50;12.07;;;5.85;;
71435;SDS011;59251;51.326;12.370;2022-11-12T03:02:15;11.77;;;5.10;;
71435;SDS011;59251;51.326;12.370;2022-11-12T03:04:41;12.60;;;5.17;;
71435;SDS011;59251;51.326;12.370;2022-11-12T03:07:06;13.25;;;5.40;;
71435;SDS011;59251;51.326;12.370;2022-11-12T03:09:32;11.47;;;4.70;;
71435;SDS011;59251;51.326;12.370;2022-11-12T03:11:57;11.87;;;4.87;;
71435;SDS011;59251;51.326;12.370;2022-11-12T03:14:22;11.37;;;4.50;;
71435;SDS011;59251;51.326;12.370;2022-11-12T03:16:48;13.10;;;4.57;;
71435;SDS011;59251;51.326;12.370;2022-11-12T03:19:13;11.30;;;4.82;;
71435;SDS011;59251;51.326;12.370;2022-11-12T03:21:39;11.53;;;5.13;;
71435;SDS011;59251;51.326;12.370;2022-11-12T03:24:04;12.60;;;5.20;;
71435;SDS011;59251;51.326;12.370;2022-11-12T03:26:30;12.02;;;5.13;;
71435;SDS011;59251;51.326;12.370;2022-11-12T03:28:55;11.82;;;5.30;;
71435;SDS011;59251;51.326;12.370;2022-11-12T03:31:21;12.43;;;4.90;;
71435;SDS011;59251;51.326;12.370;2022-11-12T03:33:47;12.70;;;4.68;;
71435;SDS011;59251;51.326;12.370;2022-11-12T03:36:12;12.07;;;4.97;;
71435;SDS011;59251;51.326;12.370;2022-11-12T03:38:38;12.50;;;5.20;;
71435;SDS011;59251;51.326;12.370;2022-11-12T03:41:03;10.40;;;5.00;;
71435;SDS011;59251;51.326;12.370;2022-11-12T03:43:29;12.52;;;4.82;;
71435;SDS011;59251;51.326;12.370;2022-11-12T03:45:54;10.20;;;4.63;;
71435;SDS011;59251;51.326;12.370;2022-11-12T03:48:19;11.43;;;5.03;;
71435;SDS011;59251;51.326;12.370;2022-11-12T03:50:45;15.00;;;6.60;;
71435;SDS011;59251;51.326;12.370;2022-11-12T03:53:10;13.13;;;6.70;;
71435;SDS011;59251;51.326;12.370;2022-11-12T03:55:36;12.13;;;6.27;;
71435;SDS011;59251;51.326;12.370;2022-11-12T03:58:01;11.23;;;5.20;;
71435;SDS011;59251;51.326;12.370;2022-11-12T04:00:27;11.27;;;5.40;;
71435;SDS011;59251;51.326;12.370;2022-11-12T04:02:54;12.05;;;4.78;;
71435;SDS011;59251;51.326;12.370;2022-11-12T04:05:20;10.35;;;4.80;;
71435;SDS011;59251;51.326;12.370;2022-11-12T04:08:05;10.90;;;4.80;;
71435;SDS011;59251;51.326;12.370;2022-11-12T04:10:52;10.50;;;4.97;;
71435;SDS011;59251;51.326;12.370;2022-11-12T04:13:17;10.43;;;4.83;;
71435;SDS011;59251;51.326;12.370;2022-11-12T04:15:59;13.15;;;5.43;;
71435;SDS011;59251;51.326;12.370;2022-11-12T04:18:45;12.50;;;5.10;;
71435;SDS011;59251;51.326;12.370;2022-11-12T04:21:52;12.00;;;5.33;;
71435;SDS011;59251;51.326;12.370;2022-11-12T04:24:21;11.85;;;5.50;;
71435;SDS011;59251;51.326;12.370;2022-11-12T04:27:22;10.82;;;4.85;;
71435;SDS011;59251;51.326;12.370;2022-11-12T04:29:51;14.23;;;6.03;;
71435;SDS011;59251;51.326;12.370;2022-11-12T04:32:38;13.68;;;5.65;;
71435;SDS011;59251;51.326;12.370;2022-11-12T04:35:18;12.90;;;5.27;;
71435;SDS011;59251;51.326;12.370;2022-11-12T04:37:44;12.32;;;5.30;;
71435;SDS011;59251;51.326;12.370;2022-11-12T04:43:02;13.07;;;5.60;;
71435;SDS011;59251;51.326;12.370;2022-11-12T04:45:47;17.00;;;5.15;;
71435;SDS011;59251;51.326;12.370;2022-11-12T04:48:16;15.40;;;5.77;;
71435;SDS011;59251;51.326;12.370;2022-11-12T04:50:42;14.88;;;6.18;;
71435;SDS011;59251;51.326;12.370;2022-11-12T04:53:10;13.93;;;5.78;;
71435;SDS011;59251;51.326;12.370;2022-11-12T04:55:36;13.57;;;5.73;;
71435;SDS011;59251;51.326;12.370;2022-11-12T04:58:01;11.10;;;4.97;;
71435;SDS011;59251;51.326;12.370;2022-11-12T05:00:27;10.37;;;4.70;;
71435;SDS011;59251;51.326;12.370;2022-11-12T05:02:52;15.48;;;5.63;;
71435;SDS011;59251;51.326;12.370;2022-11-12T05:05:18;15.60;;;5.17;;
71435;SDS011;59251;51.326;12.370;2022-11-12T05:07:43;10.67;;;5.53;;
71435;SDS011;59251;51.326;12.370;2022-11-12T05:10:09;13.37;;;5.00;;
71435;SDS011;59251;51.326;12.370;2022-11-12T05:12:34;12.53;;;5.23;;
71435;SDS011;59251;51.326;12.370;2022-11-12T05:15:00;11.98;;;5.25;;
71435;SDS011;59251;51.326;12.370;2022-11-12T05:17:26;14.55;;;5.40;;
71435;SDS011;59251;51.326;12.370;2022-11-12T05:19:52;13.40;;;5.47;;
71435;SDS011;59251;51.326;12.370;2022-11-12T05:22:17;12.35;;;5.68;;
71435;SDS011;59251;51.326;12.370;2022-11-12T05:24:43;11.97;;;5.93;;
71435;SDS011;59251;51.326;12.370;2022-11-12T05:27:12;13.50;;;6.15;;
71435;SDS011;59251;51.326;12.370;2022-11-12T05:29:42;12.23;;;6.00;;
71435;SDS011;59251;51.326;12.370;2022-11-12T05:32:10;12.98;;;6.32;;
71435;SDS011;59251;51.326;12.370;2022-11-12T05:34:37;13.20;;;5.88;;
71435;SDS011;59251;51.326;12.370;2022-11-12T05:37:03;12.50;;;5.47;;
71435;SDS011;59251;51.326;12.370;2022-11-12T05:39:30;14.32;;;5.80;;
71435;SDS011;59251;51.326;12.370;2022-11-12T05:41:55;14.13;;;5.70;;
71435;SDS011;59251;51.326;12.370;2022-11-12T05:44:21;14.02;;;6.07;;
71435;SDS011;59251;51.326;12.370;2022-11-12T05:46:47;16.33;;;6.00;;
71435;SDS011;59251;51.326;12.370;2022-11-12T05:49:12;11.80;;;5.93;;
71435;SDS011;59251;51.326;12.370;2022-11-12T05:51:38;11.73;;;5.93;;
71435;SDS011;59251;51.326;12.370;2022-11-12T05:54:03;13.37;;;6.03;;
71435;SDS011;59251;51.326;12.370;2022-11-12T05:56:29;15.32;;;6.38;;
71435;SDS011;59251;51.326;12.370;2022-11-12T05:58:55;16.23;;;6.70;;
71435;SDS011;59251;51.326;12.370;2022-11-12T06:01:20;13.27;;;6.57;;
71435;SDS011;59251;51.326;12.370;2022-11-12T06:03:46;13.97;;;6.53;;
71435;SDS011;59251;51.326;12.370;2022-11-12T06:06:11;13.10;;;6.77;;
71435;SDS011;59251;51.326;12.370;2022-11-12T06:08:37;12.52;;;6.00;;
71435;SDS011;59251;51.326;12.370;2022-11-12T06:11:02;16.57;;;6.53;;
71435;SDS011;59251;51.326;12.370;2022-11-12T06:13:28;17.47;;;6.37;;
71435;SDS011;59251;51.326;12.370;2022-11-12T06:15:54;15.23;;;6.53;;
71435;SDS011;59251;51.326;12.370;2022-11-12T06:18:20;15.85;;;6.65;;
71435;SDS011;59251;51.326;12.370;2022-11-12T06:20:46;13.38;;;6.32;;
71435;SDS011;59251;51.326;12.370;2022-11-12T06:23:31;13.77;;;6.25;;
71435;SDS011;59251;51.326;12.370;2022-11-12T06:25:57;15.23;;;6.40;;
71435;SDS011;59251;51.326;12.370;2022-11-12T06:28:23;13.60;;;5.77;;
71435;SDS011;59251;51.326;12.370;2022-11-12T06:30:48;11.63;;;5.93;;
71435;SDS011;59251;51.326;12.370;2022-11-12T06:33:14;16.03;;;6.37;;
71435;SDS011;59251;51.326;12.370;2022-11-12T06:35:39;13.95;;;6.28;;
71435;SDS011;59251;51.326;12.370;2022-11-12T06:38:05;13.60;;;5.87;;
71435;SDS011;59251;51.326;12.370;2022-11-12T06:40:30;14.00;;;5.63;;
71435;SDS011;59251;51.326;12.370;2022-11-12T06:42:56;14.67;;;6.30;;
71435;SDS011;59251;51.326;12.370;2022-11-12T06:45:22;13.55;;;6.43;;
71435;SDS011;59251;51.326;12.370;2022-11-12T06:47:48;14.65;;;6.93;;
71435;SDS011;59251;51.326;12.370;2022-11-12T06:50:13;13.32;;;6.72;;
71435;SDS011;59251;51.326;12.370;2022-11-12T06:52:39;15.10;;;6.40;;
71435;SDS011;59251;51.326;12.370;2022-11-12T06:55:04;14.87;;;6.50;;
71435;SDS011;59251;51.326;12.370;2022-11-12T06:57:32;14.13;;;6.30;;
71435;SDS011;59251;51.326;12.370;2022-11-12T06:59:57;15.95;;;7.53;;
71435;SDS011;59251;51.326;12.370;2022-11-12T07:02:23;14.47;;;6.70;;
71435;SDS011;59251;51.326;12.370;2022-11-12T07:04:48;16.67;;;7.23;;
71435;SDS011;59251;51.326;12.370;2022-11-12T07:07:14;16.30;;;6.50;;
71435;SDS011;59251;51.326;12.370;2022-11-12T07:09:39;16.80;;;6.93;;
71435;SDS011;59251;51.326;12.370;2022-11-12T07:12:05;15.98;;;6.18;;
71435;SDS011;59251;51.326;12.370;2022-11-12T07:14:30;16.33;;;6.43;;
71435;SDS011;59251;51.326;12.370;2022-11-12T07:16:56;12.88;;;6.50;;
71435;SDS011;59251;51.326;12.370;2022-11-12T07:19:21;12.85;;;6.22;;
71435;SDS011;59251;51.326;12.370;2022-11-12T07:21:47;16.17;;;6.00;;
71435;SDS011;59251;51.326;12.370;2022-11-12T07:24:12;14.60;;;6.80;;
71435;SDS011;59251;51.326;12.370;2022-11-12T07:26:37;12.40;;;5.70;;
71435;SDS011;59251;51.326;12.370;2022-11-12T07:29:03;14.27;;;5.13;;
71435;SDS011;59251;51.326;12.370;2022-11-12T07:31:28;13.63;;;5.60;;
71435;SDS011;59251;51.326;12.370;2022-11-12T07:33:54;12.07;;;5.72;;
71435;SDS011;59251;51.326;12.370;2022-11-12T07:36:19;15.50;;;6.10;;
71435;SDS011;59251;51.326;12.370;2022-11-12T07:38:45;13.35;;;5.93;;
71435;SDS011;59251;51.326;12.370;2022-11-12T07:41:13;14.90;;;6.33;;
71435;SDS011;59251;51.326;12.370;2022-11-12T07:43:41;15.23;;;5.97;;
71435;SDS011;59251;51.326;12.370;2022-11-12T07:46:11;16.27;;;7.30;;
71435;SDS011;59251;51.326;12.370;2022-11-12T07:48:38;13.30;;;5.80;;
71435;SDS011;59251;51.326;12.370;2022-11-12T07:51:05;10.40;;;5.23;;
71435;SDS011;59251;51.326;12.370;2022-11-12T07:53:51;13.30;;;6.38;;
71435;SDS011;59251;51.326;12.370;2022-11-12T07:56:19;15.07;;;6.38;;
71435;SDS011;59251;51.326;12.370;2022-11-12T07:58:45;14.00;;;7.55;;
71435;SDS011;59251;51.326;12.370;2022-11-12T08:03:54;24.65;;;11.20;;
71435;SDS011;59251;51.326;12.370;2022-11-12T08:06:20;19.92;;;8.48;;
71435;SDS011;59251;51.326;12.370;2022-11-12T08:08:45;18.80;;;9.03;;
71435;SDS011;59251;51.326;12.370;2022-11-12T08:11:11;16.97;;;7.87;;
71435;SDS011;59251;51.326;12.370;2022-11-12T08:13:36;17.33;;;7.37;;
71435;SDS011;59251;51.326;12.370;2022-11-12T08:16:01;15.57;;;7.07;;
71435;SDS011;59251;51.326;12.370;2022-11-12T08:18:27;17.42;;;7.00;;
71435;SDS011;59251;51.326;12.370;2022-11-12T08:21:00;14.02;;;6.90;;
71435;SDS011;59251;51.326;12.370;2022-11-12T08:23:27;15.57;;;7.68;;
71435;SDS011;59251;51.326;12.370;2022-11-12T08:25:56;13.83;;;6.13;;
71435;SDS011;59251;51.326;12.370;2022-11-12T08:28:22;16.08;;;6.80;;
71435;SDS011;59251;51.326;12.370;2022-11-12T08:30:48;20.30;;;7.80;;
71435;SDS011;59251;51.326;12.370;2022-11-12T08:33:13;15.27;;;6.93;;
71435;SDS011;59251;51.326;12.370;2022-11-12T08:35:39;16.60;;;6.93;;
71435;SDS011;59251;51.326;12.370;2022-11-12T08:38:04;15.07;;;7.00;;
71435;SDS011;59251;51.326;12.370;2022-11-12T08:40:34;14.23;;;5.75;;
71435;SDS011;59251;51.326;12.370;2022-11-12T08:43:04;14.68;;;5.80;;
71435;SDS011;59251;51.326;12.370;2022-11-12T08:45:32;11.80;;;5.93;;
71435;SDS011;59251;51.326;12.370;2022-11-12T08:48:00;13.87;;;6.13;;
71435;SDS011;59251;51.326;12.370;2022-11-12T08:50:27;13.40;;;6.07;;
71435;SDS011;59251;51.326;12.370;2022-11-12T08:52:53;13.35;;;6.20;;
71435;SDS011;59251;51.326;12.370;2022-11-12T08:55:28;12.20;;;5.70;;
71435;SDS011;59251;51.326;12.370;2022-11-12T08:57:54;12.00;;;6.22;;
71435;SDS011;59251;51.326;12.370;2022-11-12T09:00:19;13.20;;;5.77;;
71435;SDS011;59251;51.326;12.370;2022-11-12T09:02:45;12.37;;;5.70;;
71435;SDS011;59251;51.326;12.370;2022-11-12T09:05:10;13.33;;;6.30;;
71435;SDS011;59251;51.326;12.370;2022-11-12T09:07:36;17.13;;;5.95;;
71435;SDS011;59251;51.326;12.370;2022-11-12T09:10:01;13.67;;;6.17;;
71435;SDS011;59251;51.326;12.370;2022-11-12T09:12:27;14.90;;;6.20;;
71435;SDS011;59251;51.326;12.370;2022-11-12T09:14:52;10.40;;;4.97;;
71435;SDS011;59251;51.326;12.370;2022-11-12T09:17:17;11.80;;;4.97;;
71435;SDS011;59251;51.326;12.370;2022-11-12T09:19:43;11.60;;;5.03;;
71435;SDS011;59251;51.326;12.370;2022-11-12T09:22:08;10.60;;;4.63;;
71435;SDS011;59251;51.326;12.370;2022-11-12T09:24:34;9.07;;;4.30;;
71435;SDS011;59251;51.326;12.370;2022-11-12T09:26:59;10.48;;;4.65;;
71435;SDS011;59251;51.326;12.370;2022-11-12T09:29:25;11.17;;;4.30;;
71435;SDS011;59251;51.326;12.370;2022-11-12T09:31:50;10.60;;;4.70;;
71435;SDS011;59251;51.326;12.370;2022-11-12T09:34:16;11.35;;;4.72;;
71435;SDS011;59251;51.326;12.370;2022-11-12T09:36:41;10.90;;;5.10;;
71435;SDS011;59251;51.326;12.370;2022-11-12T09:39:06;12.13;;;4.70;;
71435;SDS011;59251;51.326;12.370;2022-11-12T09:41:35;10.97;;;4.93;;
71435;SDS011;59251;51.326;12.370;2022-11-12T09:44:03;10.82;;;4.70;;
71435;SDS011;59251;51.326;12.370;2022-11-12T09:46:35;10.88;;;5.22;;
71435;SDS011;59251;51.326;12.370;2022-11-12T09:49:13;10.75;;;5.05;;
71435;SDS011;59251;51.326;12.370;2022-11-12T09:55:04;13.52;;;4.50;;
71435;SDS011;59251;51.326;12.370;2022-11-12T09:57:50;10.90;;;4.22;;
71435;SDS011;59251;51.326;12.370;2022-11-12T10:00:16;10.63;;;5.00;;
71435;SDS011;59251;51.326;12.370;2022-11-12T10:02:54;9.35;;;4.32;;
71435;SDS011;59251;51.326;12.370;2022-11-12T10:08:10;10.40;;;4.28;;
71435;SDS011;59251;51.326;12.370;2022-11-12T10:10:52;11.38;;;4.40;;
71435;SDS011;59251;51.326;12.370;2022-11-12T10:16:10;11.20;;;4.47;;
71435;SDS011;59251;51.326;12.370;2022-11-12T10:19:21;9.25;;;4.05;;
71435;SDS011;59251;51.326;12.370;2022-11-12T10:24:36;8.27;;;3.90;;
71435;SDS011;59251;51.326;12.370;2022-11-12T10:27:10;9.02;;;4.38;;
71435;SDS011;59251;51.326;12.370;2022-11-12T10:32:28;9.90;;;4.20;;
71435;SDS011;59251;51.326;12.370;2022-11-12T10:34:54;10.73;;;4.40;;
71435;SDS011;59251;51.326;12.370;2022-11-12T10:37:24;8.43;;;3.80;;
71435;SDS011;59251;51.326;12.370;2022-11-12T10:39:57;12.45;;;4.40;;
71435;SDS011;59251;51.326;12.370;2022-11-12T10:42:23;11.05;;;4.40;;
71435;SDS011;59251;51.326;12.370;2022-11-12T10:44:48;10.95;;;4.30;;
71435;SDS011;59251;51.326;12.370;2022-11-12T10:52:34;9.73;;;4.07;;
71435;SDS011;59251;51.326;12.370;2022-11-12T10:55:05;10.27;;;4.65;;
71435;SDS011;59251;51.326;12.370;2022-11-12T10:57:40;9.90;;;4.43;;
71435;SDS011;59251;51.326;12.370;2022-11-12T11:02:36;9.83;;;4.30;;
71435;SDS011;59251;51.326;12.370;2022-11-12T11:07:50;10.43;;;4.30;;
71435;SDS011;59251;51.326;12.370;2022-11-12T11:10:24;9.90;;;4.03;;
71435;SDS011;59251;51.326;12.370;2022-11-12T11:13:19;10.93;;;4.30;;
71435;SDS011;59251;51.326;12.370;2022-11-12T11:15:59;10.45;;;4.60;;
71435;SDS011;59251;51.326;12.370;2022-11-12T11:18:28;9.18;;;3.90;;
71435;SDS011;59251;51.326;12.370;2022-11-12T11:21:01;8.65;;;3.80;;
71435;SDS011;59251;51.326;12.370;2022-11-12T11:26:18;10.15;;;4.18;;
71435;SDS011;59251;51.326;12.370;2022-11-12T11:31:45;10.98;;;4.10;;
71435;SDS011;59251;51.326;12.370;2022-11-12T11:34:21;9.55;;;3.80;;
71435;SDS011;59251;51.326;12.370;2022-11-12T11:37:23;9.02;;;4.07;;
71435;SDS011;59251;51.326;12.370;2022-11-12T11:42:46;9.00;;;4.45;;
71435;SDS011;59251;51.326;12.370;2022-11-12T11:45:17;10.45;;;4.22;;
71435;SDS011;59251;51.326;12.370;2022-11-12T11:47:55;9.40;;;3.88;;
71435;SDS011;59251;51.326;12.370;2022-11-12T11:50:51;8.35;;;3.35;;
71435;SDS011;59251;51.326;12.370;2022-11-12T11:55:52;10.00;;;3.60;;
71435;SDS011;59251;51.326;12.370;2022-11-12T12:06:28;8.73;;;3.05;;
71435;SDS011;59251;51.326;12.370;2022-11-12T12:14:15;7.03;;;2.58;;
71435;SDS011;59251;51.326;12.370;2022-11-12T12:17:02;9.10;;;2.80;;
71435;SDS011;59251;51.326;12.370;2022-11-12T12:19:35;8.13;;;2.83;;
71435;SDS011;59251;51.326;12.370;2022-11-12T12:22:13;7.70;;;2.67;;
71435;SDS011;59251;51.326;12.370;2022-11-12T12:24:58;7.25;;;2.45;;
71435;SDS011;59251;51.326;12.370;2022-11-12T12:27:33;9.98;;;3.30;;
71435;SDS011;59251;51.326;12.370;2022-11-12T12:30:03;7.53;;;2.77;;
71435;SDS011;59251;51.326;12.370;2022-11-12T12:32:46;9.77;;;3.05;;
71435;SDS011;59251;51.326;12.370;2022-11-12T12:35:21;7.18;;;2.72;;
71435;SDS011;59251;51.326;12.370;2022-11-12T12:40:41;7.10;;;2.40;;
71435;SDS011;59251;51.326;12.370;2022-11-12T12:43:33;8.57;;;3.20;;
71435;SDS011;59251;51.326;12.370;2022-11-12T12:45:58;6.78;;;2.80;;
71435;SDS011;59251;51.326;12.370;2022-11-12T12:48:34;7.38;;;2.70;;
71435;SDS011;59251;51.326;12.370;2022-11-12T12:51:03;7.35;;;3.03;;
71435;SDS011;59251;51.326;12.370;2022-11-12T12:55:55;6.63;;;2.40;;
71435;SDS011;59251;51.326;12.370;2022-11-12T12:58:39;7.35;;;2.75;;
71435;SDS011;59251;51.326;12.370;2022-11-12T13:06:34;6.87;;;2.70;;
71435;SDS011;59251;51.326;12.370;2022-11-12T13:09:06;8.05;;;2.85;;
71435;SDS011;59251;51.326;12.370;2022-11-12T13:11:52;9.40;;;2.75;;
71435;SDS011;59251;51.326;12.370;2022-11-12T13:16:58;6.70;;;2.77;;
71435;SDS011;59251;51.326;12.370;2022-11-12T13:19:26;10.40;;;3.20;;
71435;SDS011;59251;51.326;12.370;2022-11-12T13:37:50;9.15;;;3.78;;
71435;SDS011;59251;51.326;12.370;2022-11-12T13:40:20;9.13;;;3.07;;
71435;SDS011;59251;51.326;12.370;2022-11-12T13:45:45;8.98;;;3.53;;
71435;SDS011;59251;51.326;12.370;2022-11-12T13:48:16;11.02;;;3.38;;
71435;SDS011;59251;51.326;12.370;2022-11-12T13:50:48;7.57;;;3.00;;
71435;SDS011;59251;51.326;12.370;2022-11-12T13:53:17;9.27;;;3.27;;
71435;SDS011;59251;51.326;12.370;2022-11-12T13:55:47;9.50;;;3.10;;
71435;SDS011;59251;51.326;12.370;2022-11-12T13:58:18;8.02;;;2.92;;
71435;SDS011;59251;51.326;12.370;2022-11-12T14:00:53;9.18;;;2.90;;
71435;SDS011;59251;51.326;12.370;2022-11-12T14:03:20;8.30;;;3.53;;
71435;SDS011;59251;51.326;12.370;2022-11-12T14:05:47;9.47;;;3.13;;
71435;SDS011;59251;51.326;12.370;2022-11-12T14:18:55;7.70;;;3.20;;
71435;SDS011;59251;51.326;12.370;2022-11-12T14:21:46;7.43;;;2.85;;
71435;SDS011;59251;51.326;12.370;2022-11-12T14:24:22;8.55;;;3.25;;
71435;SDS011;59251;51.326;12.370;2022-11-12T14:26:48;11.43;;;3.72;;
71435;SDS011;59251;51.326;12.370;2022-11-12T14:29:17;9.47;;;4.50;;
71435;SDS011;59251;51.326;12.370;2022-11-12T14:31:43;9.07;;;3.28;;
71435;SDS011;59251;51.326;12.370;2022-11-12T14:37:08;10.40;;;3.80;;
71435;SDS011;59251;51.326;12.370;2022-11-12T14:39:58;9.50;;;3.10;;
71435;SDS011;59251;51.326;12.370;2022-11-12T14:42:23;9.47;;;3.10;;
71435;SDS011;59251;51.326;12.370;2022-11-12T14:44:49;9.03;;;3.53;;
71435;SDS011;59251;51.326;12.370;2022-11-12T14:47:15;8.43;;;3.43;;
71435;SDS011;59251;51.326;12.370;2022-11-12T14:49:42;9.55;;;3.08;;
71435;SDS011;59251;51.326;12.370;2022-11-12T14:52:13;9.15;;;3.30;;
71435;SDS011;59251;51.326;12.370;2022-11-12T14:54:46;11.10;;;3.70;;
71435;SDS011;59251;51.326;12.370;2022-11-12T14:57:22;10.85;;;3.67;;
71435;SDS011;59251;51.326;12.370;2022-11-12T14:59:50;14.97;;;4.37;;
71435;SDS011;59251;51.326;12.370;2022-11-12T15:02:18;11.05;;;4.25;;
71435;SDS011;59251;51.326;12.370;2022-11-12T15:05:09;11.10;;;3.47;;
71435;SDS011;59251;51.326;12.370;2022-11-12T15:07:49;15.13;;;6.40;;
71435;SDS011;59251;51.326;12.370;2022-11-12T15:10:29;11.57;;;4.05;;
71435;SDS011;59251;51.326;12.370;2022-11-12T15:13:02;16.48;;;9.43;;
71435;SDS011;59251;51.326;12.370;2022-11-12T15:15:33;12.25;;;4.93;;
71435;SDS011;59251;51.326;12.370;2022-11-12T15:18:02;11.75;;;4.15;;
71435;SDS011;59251;51.326;12.370;2022-11-12T15:20:30;12.27;;;4.33;;
71435;SDS011;59251;51.326;12.370;2022-11-12T15:22:55;8.73;;;3.45;;
71435;SDS011;59251;51.326;12.370;2022-11-12T15:25:23;12.80;;;4.40;;
71435;SDS011;59251;51.326;12.370;2022-11-12T15:27:55;11.35;;;4.78;;
71435;SDS011;59251;51.326;12.370;2022-11-12T15:30:35;10.52;;;4.05;;
71435;SDS011;59251;51.326;12.370;2022-11-12T15:35:36;13.75;;;5.30;;
71435;SDS011;59251;51.326;12.370;2022-11-12T15:38:09;11.75;;;4.50;;
71435;SDS011;59251;51.326;12.370;2022-11-12T15:40:51;10.53;;;4.03;;
71435;SDS011;59251;51.326;12.370;2022-11-12T15:43:20;10.90;;;4.57;;
71435;SDS011;59251;51.326;12.370;2022-11-12T15:45:49;12.27;;;4.20;;
71435;SDS011;59251;51.326;12.370;2022-11-12T15:48:15;12.07;;;5.20;;
71435;SDS011;59251;51.326;12.370;2022-11-12T15:50:41;11.60;;;4.40;;
71435;SDS011;59251;51.326;12.370;2022-11-12T15:53:07;12.75;;;4.80;;
71435;SDS011;59251;51.326;12.370;2022-11-12T15:55:32;12.03;;;4.00;;
71435;SDS011;59251;51.326;12.370;2022-11-12T15:57:59;11.93;;;4.93;;
71435;SDS011;59251;51.326;12.370;2022-11-12T16:00:25;11.07;;;4.50;;
71435;SDS011;59251;51.326;12.370;2022-11-12T16:05:33;12.00;;;4.38;;
71435;SDS011;59251;51.326;12.370;2022-11-12T16:07:59;11.23;;;4.77;;
71435;SDS011;59251;51.326;12.370;2022-11-12T16:10:24;14.40;;;6.17;;
71435;SDS011;59251;51.326;12.370;2022-11-12T16:12:49;15.85;;;6.25;;
71435;SDS011;59251;51.326;12.370;2022-11-12T16:15:17;12.03;;;4.70;;
71435;SDS011;59251;51.326;12.370;2022-11-12T16:17:44;13.25;;;5.32;;
71435;SDS011;59251;51.326;12.370;2022-11-12T16:20:14;13.80;;;5.07;;
71435;SDS011;59251;51.326;12.370;2022-11-12T16:22:41;16.02;;;5.03;;